Pittsburgh, Pennsylvania
Current Conditions -  °F | °C
As of 9:53 AM on Friday 31 Oct 2014 (Local Time) from KAGC Reporting Station
Overcast Overcast  
Wind Chill: 43°   Ceiling: 4700
Heat Index: 45°   Visibility: 10mi
Dew Point: 35°   Wind: 5mph
Humidity: 68%   Direction: 190°S
Pressure: 29.94"   Gusts: NA
Location:  40.44°N, 80°W
Report Text: KAGC 311353Z 19004KT 10SM OVC047 07/02 A2994 RMK AO2 SLP148 T00720017
Loading
Personal Weather Stations






























Interactive Weather Map
Tropical Storm Tracking
New forecast layout! Learn more

10-Day Weather Forecast

Advertisements
Track Severe Weather on mobile